Time;durP1;ratioP1;P1;durP2;ratioP2;P2;SDS_P1;SDS_P2;PMS_P1;PMS_P2;Temp;Humidity;BMP_temperature;BMP_pressure;BME280_temperature;BME280_humidity;BME280_pressure;Samples;Min_cycle;Max_cycle;Signal;HPM_P1;HPM_P2
2021/07/29 00:00:50;;;;;;;;;;;;;;;;;;5049488;28;19935;-93
2021/07/29 00:03:18;;;;;;;;;;;;;;;;;;5057718;28;19925;-91
2021/07/29 00:05:49;;;;;;;;;;;;;;;;;;5051365;28;19925;-93
2021/07/29 00:08:19;;;;;;;;;;;;;;;;;;5046828;28;19932;-93
2021/07/29 00:10:48;;;;;;;;;;;;;;;;;;5042880;28;19925;-95
2021/07/29 00:13:17;;;;;;;;;;;;;;;;;;5049004;28;19925;-93
2021/07/29 00:15:45;;;;;;;;;;;;;;;;;;5034491;28;19926;-92
2021/07/29 00:21:02;;;;;;;;;;;;;;;;;;5048201;28;19932;-93
2021/07/29 00:23:31;;;;;;;;;;;;;;;;;;5049230;28;19916;-92
2021/07/29 00:26:00;;;;;;;;;;;;;;;;;;5051946;28;19925;-94
2021/07/29 00:28:28;;;;;;;;;;;;;;;;;;5044714;28;19925;-93
2021/07/29 00:30:59;;;;;;;;;;;;;;;;;;5044505;28;19931;-93
2021/07/29 00:33:27;;;;;;;;;;;;;;;;;;5047394;28;19925;-93
2021/07/29 00:36:01;;;;;;;;;;;;;;;;;;5049146;28;19931;-93
2021/07/29 00:38:30;;;;;;;;;;;;;;;;;;5048998;28;19928;-93
2021/07/29 00:41:00;;;;;;;;;;;;;;;;;;5051240;28;19919;-92
2021/07/29 00:43:28;;;;;;;;;;;;;;;;;;5048546;28;19929;-92
2021/07/29 00:45:58;;;;;;;;;;;;;;;;;;5058866;28;19925;-93
2021/07/29 00:48:26;;;;;;;;;;;;;;;;;;5058011;28;19932;-92
2021/07/29 00:50:55;;;;;;;;;;;;;;;;;;5051716;28;19924;-92
2021/07/29 00:53:23;;;;;;;;;;;;;;;;;;5068824;28;19925;-93
2021/07/29 00:55:52;;;;;;;;;;;;;;;;;;5035875;28;20294;-92
2021/07/29 00:58:22;;;;;;;;;;;;;;;;;;5043128;28;19924;-92
2021/07/29 01:00:51;;;;;;;;;;;;;;;;;;5049941;28;19928;-93
2021/07/29 01:03:19;;;;;;;;;;;;;;;;;;5049648;28;19925;-92
2021/07/29 01:05:48;;;;;;;;;;;;;;;;;;5047750;28;19931;-93
2021/07/29 01:08:17;;;;;;;;;;;;;;;;;;5040945;28;19925;-93
2021/07/29 01:10:45;;;;;;;;;;;;;;;;;;5032770;28;19925;-95
2021/07/29 01:13:14;;;;;;;;;;;;;;;;;;5049436;28;19943;-94
2021/07/29 01:15:49;;;;;;;;;;;;;;;;;;5034884;28;19910;-93
2021/07/29 01:18:17;;;;;;;;;;;;;;;;;;5046680;28;19924;-92
2021/07/29 01:20:47;;;;;;;;;;;;;;;;;;5050151;28;19925;-93
2021/07/29 01:23:16;;;;;;;;;;;;;;;;;;5057121;28;19931;-93
2021/07/29 01:25:44;;;;;;;;;;;;;;;;;;5053934;28;19941;-93
2021/07/29 01:28:12;;;;;;;;;;;;;;;;;;5058404;28;19924;-95
2021/07/29 01:30:41;;;;;;;;;;;;;;;;;;5056126;28;19933;-93
2021/07/29 01:33:09;;;;;;;;;;;;;;;;;;5054449;28;19935;-93
2021/07/29 01:35:38;;;;;;;;;;;;;;;;;;5072336;28;19925;-93
2021/07/29 01:38:08;;;;;;;;;;;;;;;;;;5062909;28;19924;-93
2021/07/29 01:40:36;;;;;;;;;;;;;;;;;;5056333;28;19919;-93
2021/07/29 01:43:04;;;;;;;;;;;;;;;;;;5048350;28;20015;-92
2021/07/29 01:45:32;;;;;;;;;;;;;;;;;;5058717;28;19919;-92
2021/07/29 01:48:01;;;;;;;;;;;;;;;;;;5073619;28;19913;-93
2021/07/29 01:50:29;;;;;;;;;;;;;;;;;;5053347;28;19925;-92
2021/07/29 01:52:57;;;;;;;;;;;;;;;;;;5053711;28;20330;-93
2021/07/29 01:55:27;;;;;;;;;;;;;;;;;;5057914;28;19932;-91
2021/07/29 01:57:55;;;;;;;;;;;;;;;;;;5049333;28;19931;-92
2021/07/29 02:00:23;;;;;;;;;;;;;;;;;;5047956;28;19931;-93
2021/07/29 02:02:52;;;;;;;;;;;;;;;;;;5045169;28;19925;-93
2021/07/29 02:05:20;;;;;;;;;;;;;;;;;;5033799;28;19924;-92
2021/07/29 02:07:48;;;;;;;;;;;;;;;;;;5045485;28;19925;-93
2021/07/29 02:10:16;;;;;;;;;;;;;;;;;;5045962;28;19929;-92
2021/07/29 02:12:47;;;;;;;;;;;;;;;;;;5042484;28;19929;-93
2021/07/29 02:15:15;;;;;;;;;;;;;;;;;;5043964;28;19925;-92
2021/07/29 02:17:44;;;;;;;;;;;;;;;;;;5060566;28;19926;-92
2021/07/29 02:20:12;;;;;;;;;;;;;;;;;;5040041;28;20435;-92
2021/07/29 02:22:41;;;;;;;;;;;;;;;;;;5037322;28;19925;-91
2021/07/29 02:25:11;;;;;;;;;;;;;;;;;;5036064;28;19944;-91
2021/07/29 02:27:40;;;;;;;;;;;;;;;;;;5037885;28;19932;-93
2021/07/29 02:30:10;;;;;;;;;;;;;;;;;;5035518;28;20009;-93
2021/07/29 02:32:38;;;;;;;;;;;;;;;;;;5041539;28;19932;-92
2021/07/29 02:35:07;;;;;;;;;;;;;;;;;;5042174;28;19932;-93
2021/07/29 02:37:35;;;;;;;;;;;;;;;;;;5038312;28;20193;-93
2021/07/29 02:40:04;;;;;;;;;;;;;;;;;;5044006;28;19925;-93
2021/07/29 02:42:32;;;;;;;;;;;;;;;;;;5057785;28;19932;-93
2021/07/29 02:45:00;;;;;;;;;;;;;;;;;;5041735;28;19932;-92
2021/07/29 02:47:30;;;;;;;;;;;;;;;;;;5049308;28;19936;-92
2021/07/29 02:49:58;;;;;;;;;;;;;;;;;;5057547;28;19929;-92
2021/07/29 02:52:27;;;;;;;;;;;;;;;;;;5050463;28;19931;-93
2021/07/29 02:54:55;;;;;;;;;;;;;;;;;;5047852;28;19940;-92
2021/07/29 02:57:23;;;;;;;;;;;;;;;;;;5023976;28;19925;-91
2021/07/29 02:59:52;;;;;;;;;;;;;;;;;;5041034;28;19925;-93
2021/07/29 03:02:20;;;;;;;;;;;;;;;;;;5037877;28;20143;-93
2021/07/29 03:04:50;;;;;;;;;;;;;;;;;;5019403;28;19929;-94
2021/07/29 03:07:18;;;;;;;;;;;;;;;;;;5035536;28;19924;-92
2021/07/29 03:09:46;;;;;;;;;;;;;;;;;;5053887;28;19948;-92
2021/07/29 03:12:14;;;;;;;;;;;;;;;;;;5040697;28;19925;-93
2021/07/29 03:14:44;;;;;;;;;;;;;;;;;;5038782;28;19925;-93
2021/07/29 03:17:12;;;;;;;;;;;;;;;;;;5033124;28;19940;-93
2021/07/29 03:19:41;;;;;;;;;;;;;;;;;;5040457;28;20419;-91
2021/07/29 03:22:10;;;;;;;;;;;;;;;;;;5042689;28;19925;-92
2021/07/29 03:24:39;;;;;;;;;;;;;;;;;;5033352;28;19925;-93
2021/07/29 03:27:07;;;;;;;;;;;;;;;;;;5034988;28;19925;-93
2021/07/29 03:29:35;;;;;;;;;;;;;;;;;;5037329;28;19925;-91
2021/07/29 03:32:03;;;;;;;;;;;;;;;;;;5022669;28;20321;-94
2021/07/29 03:34:32;;;;;;;;;;;;;;;;;;5028712;28;19932;-93
2021/07/29 03:37:00;;;;;;;;;;;;;;;;;;5040987;28;19925;-93
2021/07/29 03:39:30;;;;;;;;;;;;;;;;;;5044473;28;20311;-92
2021/07/29 03:41:58;;;;;;;;;;;;;;;;;;5041090;28;19932;-93
2021/07/29 03:44:26;;;;;;;;;;;;;;;;;;5040387;28;19933;-93
2021/07/29 03:46:54;;;;;;;;;;;;;;;;;;5042188;28;20380;-93
2021/07/29 03:49:22;;;;;;;;;;;;;;;;;;5057740;28;19913;-95
2021/07/29 03:51:51;;;;;;;;;;;;;;;;;;5057328;28;19924;-94
2021/07/29 03:54:19;;;;;;;;;;;;;;;;;;5060626;28;19909;-94
2021/07/29 03:56:48;;;;;;;;;;;;;;;;;;5068699;28;19909;-94
2021/07/29 03:59:17;;;;;;;;;;;;;;;;;;5051744;28;19912;-94
2021/07/29 04:01:46;;;;;;;;;;;;;;;;;;5057368;28;19924;-93
2021/07/29 04:04:14;;;;;;;;;;;;;;;;;;5048454;28;19925;-93
2021/07/29 04:06:42;;;;;;;;;;;;;;;;;;5045409;28;19925;-94
2021/07/29 04:09:11;;;;;;;;;;;;;;;;;;5036766;28;20312;-93
2021/07/29 04:11:39;;;;;;;;;;;;;;;;;;5038926;28;19955;-93
2021/07/29 04:14:09;;;;;;;;;;;;;;;;;;5037960;28;19940;-93
2021/07/29 04:16:37;;;;;;;;;;;;;;;;;;5038792;28;19996;-92
2021/07/29 04:19:05;;;;;;;;;;;;;;;;;;5042601;28;20389;-92
2021/07/29 04:21:33;;;;;;;;;;;;;;;;;;5041808;28;19931;-92
2021/07/29 04:24:02;;;;;;;;;;;;;;;;;;5037329;28;19925;-92
2021/07/29 04:26:30;;;;;;;;;;;;;;;;;;5038294;28;19932;-92
2021/07/29 04:28:58;;;;;;;;;;;;;;;;;;5033929;28;20324;-93
2021/07/29 04:31:28;;;;;;;;;;;;;;;;;;5034620;28;19929;-93
2021/07/29 04:33:57;;;;;;;;;;;;;;;;;;5038190;28;19925;-92
2021/07/29 04:36:25;;;;;;;;;;;;;;;;;;5045432;28;19935;-92
2021/07/29 04:38:54;;;;;;;;;;;;;;;;;;5042227;28;20308;-93
2021/07/29 04:41:22;;;;;;;;;;;;;;;;;;5045696;28;19925;-93
2021/07/29 04:43:50;;;;;;;;;;;;;;;;;;5051993;28;20055;-94
2021/07/29 04:46:18;;;;;;;;;;;;;;;;;;5045695;28;19924;-93
2021/07/29 04:48:48;;;;;;;;;;;;;;;;;;5043034;28;19943;-93
2021/07/29 04:51:16;;;;;;;;;;;;;;;;;;5038232;28;20311;-93
2021/07/29 04:53:44;;;;;;;;;;;;;;;;;;5039164;28;20388;-94
2021/07/29 04:56:16;;;;;;;;;;;;;;;;;;5036463;28;19932;-93
2021/07/29 04:58:44;;;;;;;;;;;;;;;;;;5039329;28;19925;-93
2021/07/29 05:01:12;;;;;;;;;;;;;;;;;;5036427;28;19933;-92
2021/07/29 05:03:40;;;;;;;;;;;;;;;;;;5039533;28;19924;-92
2021/07/29 05:06:10;;;;;;;;;;;;;;;;;;5040659;28;19925;-93
2021/07/29 05:08:38;;;;;;;;;;;;;;;;;;5049040;28;19913;-93
2021/07/29 05:11:06;;;;;;;;;;;;;;;;;;5076016;28;19913;-94
2021/07/29 05:13:34;;;;;;;;;;;;;;;;;;5059933;28;19912;-94
2021/07/29 05:16:04;;;;;;;;;;;;;;;;;;5054771;28;19912;-94
2021/07/29 05:18:32;;;;;;;;;;;;;;;;;;5036685;28;19988;-94
2021/07/29 05:21:01;;;;;;;;;;;;;;;;;;5035553;28;19947;-93
2021/07/29 05:23:31;;;;;;;;;;;;;;;;;;5035540;28;20396;-93
2021/07/29 05:25:59;;;;;;;;;;;;;;;;;;5034930;28;19925;-92
2021/07/29 05:28:28;;;;;;;;;;;;;;;;;;5043656;28;19929;-92
2021/07/29 05:30:56;;;;;;;;;;;;;;;;;;5041181;28;19932;-93
2021/07/29 05:33:25;;;;;;;;;;;;;;;;;;5045339;28;19925;-92
2021/07/29 05:35:53;;;;;;;;;;;;;;;;;;5044664;28;19932;-93
2021/07/29 05:38:21;;;;;;;;;;;;;;;;;;5047584;28;19925;-93
2021/07/29 05:40:51;;;;;;;;;;;;;;;;;;5047084;28;19948;-92
2021/07/29 05:43:19;;;;;;;;;;;;;;;;;;5047416;28;20404;-93
2021/07/29 05:45:47;;;;;;;;;;;;;;;;;;5042902;28;19925;-93
2021/07/29 05:48:16;;;;;;;;;;;;;;;;;;5045383;28;19929;-93
2021/07/29 05:50:46;;;;;;;;;;;;;;;;;;5045839;28;19926;-93
2021/07/29 05:53:14;;;;;;;;;;;;;;;;;;5045817;28;19932;-92
2021/07/29 05:55:42;;;;;;;;;;;;;;;;;;5045236;28;20000;-93
2021/07/29 05:58:12;;;;;;;;;;;;;;;;;;5029557;28;19925;-93
2021/07/29 06:00:40;;;;;;;;;;;;;;;;;;5044013;28;19925;-93
2021/07/29 06:03:08;;;;;;;;;;;;;;;;;;5062817;28;20392;-93
2021/07/29 06:05:37;;;;;;;;;;;;;;;;;;5046683;28;19936;-93
2021/07/29 06:08:05;;;;;;;;;;;;;;;;;;5063682;28;20415;-94
2021/07/29 06:10:34;;;;;;;;;;;;;;;;;;5042201;28;19925;-93
2021/07/29 06:13:02;;;;;;;;;;;;;;;;;;5045155;28;19929;-93
2021/07/29 06:15:32;;;;;;;;;;;;;;;;;;5043514;28;19928;-92
2021/07/29 06:18:01;;;;;;;;;;;;;;;;;;5044624;28;19932;-92
2021/07/29 06:20:29;;;;;;;;;;;;;;;;;;5044638;28;20454;-93
2021/07/29 06:22:58;;;;;;;;;;;;;;;;;;5033777;28;19924;-93
2021/07/29 06:25:26;;;;;;;;;;;;;;;;;;5063259;28;19925;-92
2021/07/29 06:27:54;;;;;;;;;;;;;;;;;;5043962;28;19925;-92
2021/07/29 06:30:23;;;;;;;;;;;;;;;;;;5044082;28;19944;-93
2021/07/29 06:32:53;;;;;;;;;;;;;;;;;;5038472;28;19932;-93
2021/07/29 06:35:21;;;;;;;;;;;;;;;;;;5041379;28;19925;-93
2021/07/29 06:37:49;;;;;;;;;;;;;;;;;;5035187;28;19925;-91
2021/07/29 06:40:18;;;;;;;;;;;;;;;;;;5045274;28;19931;-93
2021/07/29 06:42:46;;;;;;;;;;;;;;;;;;5035148;28;19932;-93
2021/07/29 06:45:14;;;;;;;;;;;;;;;;;;5038918;28;19935;-92
2021/07/29 06:47:43;;;;;;;;;;;;;;;;;;5034764;28;19924;-93
2021/07/29 06:50:14;;;;;;;;;;;;;;;;;;5045313;28;19932;-93
2021/07/29 06:52:42;;;;;;;;;;;;;;;;;;5042319;28;20435;-91
2021/07/29 06:55:11;;;;;;;;;;;;;;;;;;5038349;28;20309;-92
2021/07/29 06:57:39;;;;;;;;;;;;;;;;;;5036508;28;19932;-92
2021/07/29 07:00:08;;;;;;;;;;;;;;;;;;5047292;28;19928;-93
2021/07/29 07:02:36;;;;;;;;;;;;;;;;;;5039147;28;19933;-93
2021/07/29 07:05:05;;;;;;;;;;;;;;;;;;5043624;28;19932;-90
2021/07/29 07:07:34;;;;;;;;;;;;;;;;;;5040562;28;19925;-91
2021/07/29 07:10:03;;;;;;;;;;;;;;;;;;5034105;28;19943;-92
2021/07/29 07:12:31;;;;;;;;;;;;;;;;;;5042019;28;19925;-92
2021/07/29 07:14:59;;;;;;;;;;;;;;;;;;5038974;28;19925;-91
2021/07/29 07:17:28;;;;;;;;;;;;;;;;;;5060077;28;20372;-89
2021/07/29 07:19:59;;;;;;;;;;;;;;;;;;5042625;28;19924;-92
2021/07/29 07:22:28;;;;;;;;;;;;;;;;;;5040892;28;19926;-90
2021/07/29 07:24:58;;;;;;;;;;;;;;;;;;5050451;28;20234;-92
2021/07/29 07:27:26;;;;;;;;;;;;;;;;;;5041142;28;19932;-90
2021/07/29 07:29:54;;;;;;;;;;;;;;;;;;5044076;28;19932;-91
2021/07/29 07:32:23;;;;;;;;;;;;;;;;;;5051018;28;20404;-91
2021/07/29 07:34:51;;;;;;;;;;;;;;;;;;5043168;28;19933;-91
2021/07/29 07:37:20;;;;;;;;;;;;;;;;;;5029332;28;19943;-90
2021/07/29 07:39:48;;;;;;;;;;;;;;;;;;5043358;28;20354;-91
2021/07/29 07:42:18;;;;;;;;;;;;;;;;;;5040590;28;20384;-92
2021/07/29 07:44:46;;;;;;;;;;;;;;;;;;5043191;28;19931;-91
2021/07/29 07:47:14;;;;;;;;;;;;;;;;;;5039887;28;19924;-92
2021/07/29 07:49:43;;;;;;;;;;;;;;;;;;5041716;28;19924;-92
2021/07/29 07:52:12;;;;;;;;;;;;;;;;;;5039163;28;20388;-92
2021/07/29 07:54:40;;;;;;;;;;;;;;;;;;5052513;28;19932;-92
2021/07/29 07:57:08;;;;;;;;;;;;;;;;;;5037799;28;19948;-92
2021/07/29 07:59:38;;;;;;;;;;;;;;;;;;5037683;28;19924;-91
2021/07/29 08:02:07;;;;;;;;;;;;;;;;;;5046884;28;19928;-91
2021/07/29 08:04:35;;;;;;;;;;;;;;;;;;5037375;28;19925;-90
2021/07/29 08:07:05;;;;;;;;;;;;;;;;;;5055336;28;19925;-92
2021/07/29 08:09:33;;;;;;;;;;;;;;;;;;5052201;28;19925;-90
2021/07/29 08:12:01;;;;;;;;;;;;;;;;;;5035180;28;19936;-91
2021/07/29 08:14:30;;;;;;;;;;;;;;;;;;5044206;28;19925;-91
2021/07/29 08:17:00;;;;;;;;;;;;;;;;;;5064332;28;19925;-91
2021/07/29 08:19:28;;;;;;;;;;;;;;;;;;5044937;28;19928;-91
2021/07/29 08:21:56;;;;;;;;;;;;;;;;;;5033801;28;19925;-91
2021/07/29 08:24:25;;;;;;;;;;;;;;;;;;5043231;28;19932;-89
2021/07/29 08:26:53;;;;;;;;;;;;;;;;;;5044216;28;20304;-90
2021/07/29 08:29:21;;;;;;;;;;;;;;;;;;5040438;28;19940;-91
2021/07/29 08:31:49;;;;;;;;;;;;;;;;;;5035642;28;19925;-90
2021/07/29 08:34:19;;;;;;;;;;;;;;;;;;5043323;28;20285;-88
2021/07/29 08:36:48;;;;;;;;;;;;;;;;;;5053259;28;20327;-88
2021/07/29 08:39:16;;;;;;;;;;;;;;;;;;5050004;28;19925;-90
2021/07/29 08:41:44;;;;;;;;;;;;;;;;;;5034968;28;19925;-91
2021/07/29 08:44:13;;;;;;;;;;;;;;;;;;5039782;28;19937;-90
2021/07/29 08:46:44;;;;;;;;;;;;;;;;;;5035550;28;19924;-90
2021/07/29 08:49:12;;;;;;;;;;;;;;;;;;5036216;28;19929;-90
2021/07/29 08:51:42;;;;;;;;;;;;;;;;;;5035447;28;19932;-89
2021/07/29 08:54:12;;;;;;;;;;;;;;;;;;5033062;28;19925;-89
2021/07/29 08:56:41;;;;;;;;;;;;;;;;;;5037212;28;19925;-90
2021/07/29 08:59:09;;;;;;;;;;;;;;;;;;5031564;28;19925;-89
2021/07/29 09:01:41;;;;;;;;;;;;;;;;;;5034720;28;19929;-90
2021/07/29 09:04:13;;;;;;;;;;;;;;;;;;5051588;28;19925;-90
2021/07/29 09:06:56;;;;;;;;;;;;;;;;;;5031168;28;19924;-90
2021/07/29 09:09:39;;;;;;;;;;;;;;;;;;5035067;28;19925;-91
2021/07/29 09:12:14;;;;;;;;;;;;;;;;;;5032352;28;19925;-91
2021/07/29 09:14:42;;;;;;;;;;;;;;;;;;5030735;28;19925;-90
2021/07/29 09:17:11;;;;;;;;;;;;;;;;;;5062726;28;19925;-91
2021/07/29 09:19:41;;;;;;;;;;;;;;;;;;5046437;28;19925;-89
2021/07/29 09:22:14;;;;;;;;;;;;;;;;;;5052991;28;19909;-92
2021/07/29 09:25:17;;;;;;;;;;;;;;;;;;5056429;28;19925;-90
2021/07/29 09:27:46;;;;;;;;;;;;;;;;;;4989810;28;20385;-90
2021/07/29 09:30:15;;;;;;;;;;;;;;;;;;4995346;28;20360;-90
2021/07/29 09:33:09;;;;;;;;;;;;;;;;;;5021116;28;20416;-90
2021/07/29 09:35:38;;;;;;;;;;;;;;;;;;5023513;28;19947;-91
2021/07/29 09:38:11;;;;;;;;;;;;;;;;;;5036308;28;19924;-90
2021/07/29 09:40:43;;;;;;;;;;;;;;;;;;5035887;28;19931;-91
2021/07/29 09:43:12;;;;;;;;;;;;;;;;;;5033199;28;19932;-91
2021/07/29 09:45:41;;;;;;;;;;;;;;;;;;5036616;28;19931;-89
2021/07/29 09:48:10;;;;;;;;;;;;;;;;;;5037598;28;19924;-90
2021/07/29 09:50:38;;;;;;;;;;;;;;;;;;5034774;28;19925;-88
2021/07/29 09:53:06;;;;;;;;;;;;;;;;;;5047008;28;19929;-89
2021/07/29 09:55:36;;;;;;;;;;;;;;;;;;5029126;28;20316;-90
2021/07/29 09:58:05;;;;;;;;;;;;;;;;;;5039738;28;19929;-88
2021/07/29 10:00:34;;;;;;;;;;;;;;;;;;5036747;28;19932;-89
2021/07/29 10:03:03;;;;;;;;;;;;;;;;;;5044596;28;19933;-90
2021/07/29 10:05:37;;;;;;;;;;;;;;;;;;5032780;28;20308;-90
2021/07/29 10:08:06;;;;;;;;;;;;;;;;;;5035599;28;19936;-90
2021/07/29 10:10:36;;;;;;;;;;;;;;;;;;5037577;28;19932;-90
2021/07/29 10:13:04;;;;;;;;;;;;;;;;;;5033971;28;19932;-90
2021/07/29 10:15:39;;;;;;;;;;;;;;;;;;5040489;28;19932;-91
2021/07/29 10:18:08;;;;;;;;;;;;;;;;;;5035846;28;19932;-89
2021/07/29 10:20:36;;;;;;;;;;;;;;;;;;5038652;28;20431;-90
2021/07/29 10:23:38;;;;;;;;;;;;;;;;;;5027807;28;20312;-89
2021/07/29 10:26:08;;;;;;;;;;;;;;;;;;5041457;28;20307;-89
2021/07/29 10:28:38;;;;;;;;;;;;;;;;;;5035221;28;19983;-89
2021/07/29 10:31:07;;;;;;;;;;;;;;;;;;5052142;28;19925;-88
2021/07/29 10:33:35;;;;;;;;;;;;;;;;;;5053472;28;19959;-89
2021/07/29 10:36:04;;;;;;;;;;;;;;;;;;5036327;28;19925;-89
2021/07/29 10:38:48;;;;;;;;;;;;;;;;;;5023606;28;19933;-89
2021/07/29 10:41:35;;;;;;;;;;;;;;;;;;5034549;28;19932;-89
2021/07/29 10:44:06;;;;;;;;;;;;;;;;;;5035956;28;19929;-89
2021/07/29 10:46:52;;;;;;;;;;;;;;;;;;5051171;28;19936;-90
2021/07/29 10:49:21;;;;;;;;;;;;;;;;;;5042181;28;19948;-89
2021/07/29 10:52:07;;;;;;;;;;;;;;;;;;5037284;28;20231;-89
2021/07/29 10:54:36;;;;;;;;;;;;;;;;;;5053887;28;20308;-89
2021/07/29 10:57:04;;;;;;;;;;;;;;;;;;5052396;28;19940;-88
2021/07/29 10:59:34;;;;;;;;;;;;;;;;;;5057892;28;19928;-89
2021/07/29 11:02:05;;;;;;;;;;;;;;;;;;5047362;28;19925;-89
2021/07/29 11:04:54;;;;;;;;;;;;;;;;;;5034304;28;19948;-89
2021/07/29 11:07:22;;;;;;;;;;;;;;;;;;5044074;28;19912;-92
2021/07/29 11:09:56;;;;;;;;;;;;;;;;;;5058617;28;19921;-90
2021/07/29 11:12:24;;;;;;;;;;;;;;;;;;5059259;28;19931;-91
2021/07/29 11:14:55;;;;;;;;;;;;;;;;;;5076511;28;19924;-90
2021/07/29 11:17:23;;;;;;;;;;;;;;;;;;5034073;28;19925;-89
2021/07/29 11:19:51;;;;;;;;;;;;;;;;;;5036420;28;19936;-88
2021/07/29 11:22:19;;;;;;;;;;;;;;;;;;5033297;28;19936;-89
2021/07/29 11:24:47;;;;;;;;;;;;;;;;;;5048881;28;19932;-89
2021/07/29 11:27:17;;;;;;;;;;;;;;;;;;5050465;28;19925;-89
2021/07/29 11:29:56;;;;;;;;;;;;;;;;;;5031825;28;19925;-90
2021/07/29 11:32:24;;;;;;;;;;;;;;;;;;5032154;28;19932;-91
2021/07/29 11:34:56;;;;;;;;;;;;;;;;;;5041534;28;19925;-89
2021/07/29 11:37:24;;;;;;;;;;;;;;;;;;5050989;28;19925;-90
2021/07/29 11:39:52;;;;;;;;;;;;;;;;;;5034863;28;20411;-88
2021/07/29 11:42:20;;;;;;;;;;;;;;;;;;5035890;28;19925;-89
2021/07/29 11:44:49;;;;;;;;;;;;;;;;;;5046419;28;20147;-89
2021/07/29 11:47:18;;;;;;;;;;;;;;;;;;5028646;28;20400;-88
2021/07/29 11:49:47;;;;;;;;;;;;;;;;;;5031886;28;19925;-88
2021/07/29 11:52:15;;;;;;;;;;;;;;;;;;5029407;28;19932;-88
2021/07/29 11:54:44;;;;;;;;;;;;;;;;;;5060296;28;19925;-89
2021/07/29 11:57:22;;;;;;;;;;;;;;;;;;5030434;28;19925;-89
2021/07/29 11:59:50;;;;;;;;;;;;;;;;;;5047858;28;19929;-88
2021/07/29 12:02:20;;;;;;;;;;;;;;;;;;5047924;28;19932;-90
2021/07/29 12:04:49;;;;;;;;;;;;;;;;;;5043275;28;19932;-91
2021/07/29 12:07:17;;;;;;;;;;;;;;;;;;5026097;28;19925;-90
2021/07/29 12:09:45;;;;;;;;;;;;;;;;;;5048606;28;20307;-90
2021/07/29 12:12:14;;;;;;;;;;;;;;;;;;5052664;28;19931;-91
2021/07/29 12:14:43;;;;;;;;;;;;;;;;;;5035580;28;19925;-91
2021/07/29 12:17:20;;;;;;;;;;;;;;;;;;5032579;28;20388;-91
2021/07/29 12:19:56;;;;;;;;;;;;;;;;;;5035674;28;19929;-90
2021/07/29 12:22:25;;;;;;;;;;;;;;;;;;5035234;28;19925;-91
2021/07/29 12:24:55;;;;;;;;;;;;;;;;;;5033515;28;19925;-90
2021/07/29 12:27:23;;;;;;;;;;;;;;;;;;5034398;28;19947;-90
2021/07/29 12:29:51;;;;;;;;;;;;;;;;;;5034992;28;20320;-91
2021/07/29 12:32:21;;;;;;;;;;;;;;;;;;5034939;28;20332;-90
2021/07/29 12:34:50;;;;;;;;;;;;;;;;;;5036965;28;20407;-91
2021/07/29 12:37:29;;;;;;;;;;;;;;;;;;5035560;28;20389;-91
2021/07/29 12:39:57;;;;;;;;;;;;;;;;;;5031288;28;19925;-91
2021/07/29 12:42:26;;;;;;;;;;;;;;;;;;5036998;28;19924;-90
2021/07/29 12:44:55;;;;;;;;;;;;;;;;;;5039449;28;20388;-90
2021/07/29 12:47:25;;;;;;;;;;;;;;;;;;5044625;28;19920;-92
2021/07/29 12:49:53;;;;;;;;;;;;;;;;;;5049323;28;19928;-91
2021/07/29 12:52:21;;;;;;;;;;;;;;;;;;5049825;28;19926;-91
2021/07/29 12:55:06;;;;;;;;;;;;;;;;;;5059904;28;19945;-91
2021/07/29 12:57:49;;;;;;;;;;;;;;;;;;5068813;28;19909;-92
2021/07/29 13:00:17;;;;;;;;;;;;;;;;;;5048276;28;19923;-92
2021/07/29 13:02:47;;;;;;;;;;;;;;;;;;5044144;28;19919;-92
2021/07/29 13:05:15;;;;;;;;;;;;;;;;;;5059546;28;19919;-92
2021/07/29 13:07:44;;;;;;;;;;;;;;;;;;5059965;28;19919;-91
2021/07/29 13:10:12;;;;;;;;;;;;;;;;;;5044880;28;19935;-91
2021/07/29 13:12:40;;;;;;;;;;;;;;;;;;5059432;28;19928;-93
2021/07/29 13:15:13;;;;;;;;;;;;;;;;;;5054779;28;19909;-91
2021/07/29 13:17:41;;;;;;;;;;;;;;;;;;5027690;28;19925;-91
2021/07/29 13:20:11;;;;;;;;;;;;;;;;;;5047707;28;19925;-90
2021/07/29 13:22:39;;;;;;;;;;;;;;;;;;5054657;28;19936;-91
2021/07/29 13:25:08;;;;;;;;;;;;;;;;;;5054702;28;19927;-93
2021/07/29 13:27:36;;;;;;;;;;;;;;;;;;5069876;28;19913;-92
2021/07/29 13:30:05;;;;;;;;;;;;;;;;;;5069858;28;19920;-91
2021/07/29 13:32:33;;;;;;;;;;;;;;;;;;5046869;28;19925;-90
2021/07/29 13:35:02;;;;;;;;;;;;;;;;;;5047295;28;19932;-91
2021/07/29 13:37:31;;;;;;;;;;;;;;;;;;5035294;28;19924;-91
2021/07/29 13:39:59;;;;;;;;;;;;;;;;;;5032430;28;19932;-90
2021/07/29 13:42:28;;;;;;;;;;;;;;;;;;5051317;28;19932;-91
2021/07/29 13:45:15;;;;;;;;;;;;;;;;;;5033673;28;20112;-91
2021/07/29 13:47:44;;;;;;;;;;;;;;;;;;5024770;28;19932;-91
2021/07/29 13:50:12;;;;;;;;;;;;;;;;;;5037731;28;19933;-91
2021/07/29 13:52:41;;;;;;;;;;;;;;;;;;5039004;28;19931;-90
2021/07/29 13:55:10;;;;;;;;;;;;;;;;;;5032958;28;19925;-90
2021/07/29 13:57:38;;;;;;;;;;;;;;;;;;5037750;28;19940;-91
2021/07/29 14:00:07;;;;;;;;;;;;;;;;;;5037934;28;20315;-91
2021/07/29 14:02:36;;;;;;;;;;;;;;;;;;5037284;28;20404;-91
2021/07/29 14:05:05;;;;;;;;;;;;;;;;;;5037398;28;19925;-91
2021/07/29 14:07:34;;;;;;;;;;;;;;;;;;5055162;28;20376;-91
2021/07/29 14:10:04;;;;;;;;;;;;;;;;;;5034877;28;19925;-91
2021/07/29 14:12:33;;;;;;;;;;;;;;;;;;5031349;28;19932;-91
2021/07/29 14:15:02;;;;;;;;;;;;;;;;;;5034168;28;19932;-91
2021/07/29 14:17:35;;;;;;;;;;;;;;;;;;5035377;28;19932;-92
2021/07/29 14:20:10;;;;;;;;;;;;;;;;;;5019651;28;20308;-91
2021/07/29 14:22:55;;;;;;;;;;;;;;;;;;5032734;28;20308;-92
2021/07/29 14:25:25;;;;;;;;;;;;;;;;;;5020799;28;19932;-91
2021/07/29 14:27:53;;;;;;;;;;;;;;;;;;5033019;28;20388;-91
2021/07/29 14:30:22;;;;;;;;;;;;;;;;;;5042369;28;19933;-91
2021/07/29 14:32:50;;;;;;;;;;;;;;;;;;5054398;28;20426;-91
2021/07/29 14:35:18;;;;;;;;;;;;;;;;;;5049658;28;19929;-90
2021/07/29 14:37:46;;;;;;;;;;;;;;;;;;5041316;28;19995;-91
2021/07/29 14:40:15;;;;;;;;;;;;;;;;;;5037466;28;19932;-91
2021/07/29 14:42:44;;;;;;;;;;;;;;;;;;5037540;28;20415;-91
2021/07/29 14:45:24;;;;;;;;;;;;;;;;;;5028862;28;19925;-92
2021/07/29 14:50:40;;;;;;;;;;;;;;;;;;5032861;28;19932;-91
2021/07/29 14:53:08;;;;;;;;;;;;;;;;;;5037724;28;19936;-91
2021/07/29 14:55:48;;;;;;;;;;;;;;;;;;5037374;28;19925;-91
2021/07/29 16:09:13;;;;;;;;;;;;;;;;;;5024474;28;19925;-84
2021/07/29 16:11:42;;;;;;;;;;;;;;;;;;5018084;28;19925;-86
2021/07/29 16:14:14;;;;;;;;;;;;;;;;;;5016458;28;19932;-84
2021/07/29 16:16:44;;;;;;;;;;;;;;;;;;5043817;28;19936;-87
2021/07/29 16:19:16;;;;;;;;;;;;;;;;;;5035692;28;19913;-87
2021/07/29 16:21:45;;;;;;;;;;;;;;;;;;5013481;28;20298;-85
2021/07/29 16:24:14;;;;;;;;;;;;;;;;;;5019920;28;19920;-87
2021/07/29 16:26:42;;;;;;;;;;;;;;;;;;5041049;28;19913;-85
2021/07/29 16:29:11;;;;;;;;;;;;;;;;;;5034287;28;19917;-87
2021/07/29 16:31:40;;;;;;;;;;;;;;;;;;5031923;28;19919;-87
2021/07/29 16:34:10;;;;;;;;;;;;;;;;;;5033277;28;19909;-85
2021/07/29 16:36:40;;;;;;;;;;;;;;;;;;5040730;28;19946;-84
2021/07/29 16:39:09;;;;;;;;;;;;;;;;;;5012771;28;20410;-85
2021/07/29 16:41:39;;;;;;;;;;;;;;;;;;5026480;28;19926;-84
2021/07/29 16:44:09;;;;;;;;;;;;;;;;;;5025201;28;19933;-83
2021/07/29 16:46:37;;;;;;;;;;;;;;;;;;5024704;28;19925;-83
2021/07/29 16:49:06;;;;;;;;;;;;;;;;;;5011019;28;20395;-83
2021/07/29 16:51:35;;;;;;;;;;;;;;;;;;5025244;28;19925;-82
2021/07/29 16:54:05;;;;;;;;;;;;;;;;;;5028447;28;19932;-83
2021/07/29 16:56:35;;;;;;;;;;;;;;;;;;5022491;28;19925;-83
2021/07/29 16:59:03;;;;;;;;;;;;;;;;;;5008554;28;19993;-83
2021/07/29 17:01:32;;;;;;;;;;;;;;;;;;5027952;28;20418;-85
2021/07/29 17:04:01;;;;;;;;;;;;;;;;;;5010332;28;19929;-82
2021/07/29 17:06:29;;;;;;;;;;;;;;;;;;5028494;28;19932;-84
2021/07/29 17:08:58;;;;;;;;;;;;;;;;;;5044569;28;19932;-83
2021/07/29 17:11:27;;;;;;;;;;;;;;;;;;5030243;28;19925;-82
2021/07/29 17:13:56;;;;;;;;;;;;;;;;;;5028479;28;19932;-83
2021/07/29 17:16:25;;;;;;;;;;;;;;;;;;5030586;28;19925;-84
2021/07/29 17:18:54;;;;;;;;;;;;;;;;;;5016712;28;19929;-85
2021/07/29 17:21:22;;;;;;;;;;;;;;;;;;5054956;28;19932;-83
2021/07/29 17:23:51;;;;;;;;;;;;;;;;;;5041666;28;19928;-83
2021/07/29 17:26:20;;;;;;;;;;;;;;;;;;5019177;28;19932;-83
2021/07/29 17:28:50;;;;;;;;;;;;;;;;;;5016596;28;19925;-83
2021/07/29 17:31:18;;;;;;;;;;;;;;;;;;5031758;28;20303;-82
2021/07/29 17:33:46;;;;;;;;;;;;;;;;;;5045753;28;19936;-83
2021/07/29 17:36:15;;;;;;;;;;;;;;;;;;5017437;28;20391;-82
2021/07/29 17:38:43;;;;;;;;;;;;;;;;;;5015885;28;19925;-83
2021/07/29 17:41:12;;;;;;;;;;;;;;;;;;5018372;28;19925;-83
2021/07/29 17:43:41;;;;;;;;;;;;;;;;;;5049027;28;19929;-85
2021/07/29 17:46:11;;;;;;;;;;;;;;;;;;5019624;28;19926;-82
2021/07/29 17:48:39;;;;;;;;;;;;;;;;;;5017920;28;19933;-83
2021/07/29 17:51:07;;;;;;;;;;;;;;;;;;5026049;28;19929;-82
2021/07/29 17:53:36;;;;;;;;;;;;;;;;;;5018634;28;20422;-82
2021/07/29 17:56:05;;;;;;;;;;;;;;;;;;5034161;28;19937;-84
2021/07/29 17:58:33;;;;;;;;;;;;;;;;;;5015660;28;19932;-82
2021/07/29 18:01:02;;;;;;;;;;;;;;;;;;5027715;28;19925;-82
2021/07/29 18:03:32;;;;;;;;;;;;;;;;;;5034282;28;19929;-82
2021/07/29 18:06:01;;;;;;;;;;;;;;;;;;5051088;28;19925;-82
2021/07/29 18:08:29;;;;;;;;;;;;;;;;;;5034212;28;19936;-82
2021/07/29 18:10:57;;;;;;;;;;;;;;;;;;5026027;28;19929;-82
2021/07/29 18:13:26;;;;;;;;;;;;;;;;;;5040249;28;19925;-82
2021/07/29 18:15:54;;;;;;;;;;;;;;;;;;5020125;28;19932;-82
2021/07/29 18:18:22;;;;;;;;;;;;;;;;;;5029209;28;19932;-82